Arvonia, Virginia
Current Conditions -  °F | °C
As of 9:55 AM on Wednesday 22 Oct 2014 (Local Time) from KFVX Reporting Station
Overcast Overcast  
Wind Chill: 12°   Ceiling: 3600
Heat Index: 12°   Visibility: 10mi
Dew Point:   Wind: 3mph
Humidity: 77%   Direction: 290°WNW
Pressure: 29.95"   Gusts: NA
Location:  37.68°N, 78.34°W
Report Text: KFVX 221355Z AUTO 29003KT 10SM OVC036 12/08 A2995 RMK AO2
Loading
Personal Weather Stations






























Interactive Weather Map
Tropical Storm Tracking
New forecast layout! Learn more

10-Day Weather Forecast

Advertisements
Track Severe Weather on mobile